sensor_id;sensor_type;location;lat;lon;timestamp;temperature;humidity
19898;DHT22;10111;50.814;4.572;2023-06-26T00:02:16;23.30;99.90
19898;DHT22;10111;50.814;4.572;2023-06-26T00:04:43;23.30;99.90
19898;DHT22;10111;50.814;4.572;2023-06-26T00:07:09;23.20;99.90
19898;DHT22;10111;50.814;4.572;2023-06-26T00:09:34;23.20;99.90
19898;DHT22;10111;50.814;4.572;2023-06-26T00:12:00;23.20;99.90
19898;DHT22;10111;50.814;4.572;2023-06-26T00:14:26;23.20;99.90
19898;DHT22;10111;50.814;4.572;2023-06-26T00:16:52;23.20;99.90
19898;DHT22;10111;50.814;4.572;2023-06-26T00:19:18;23.10;99.90
19898;DHT22;10111;50.814;4.572;2023-06-26T00:21:44;23.10;99.90
19898;DHT22;10111;50.814;4.572;2023-06-26T00:24:17;23.00;99.90
19898;DHT22;10111;50.814;4.572;2023-06-26T00:26:45;22.90;99.90
19898;DHT22;10111;50.814;4.572;2023-06-26T00:29:11;22.90;99.90
19898;DHT22;10111;50.814;4.572;2023-06-26T00:31:36;22.90;99.90
19898;DHT22;10111;50.814;4.572;2023-06-26T00:34:03;22.80;99.90
19898;DHT22;10111;50.814;4.572;2023-06-26T00:36:29;22.80;99.90
19898;DHT22;10111;50.814;4.572;2023-06-26T00:38:54;22.70;99.90
19898;DHT22;10111;50.814;4.572;2023-06-26T00:41:20;22.70;99.90
19898;DHT22;10111;50.814;4.572;2023-06-26T00:43:46;22.60;99.90
19898;DHT22;10111;50.814;4.572;2023-06-26T00:46:15;22.50;99.90
19898;DHT22;10111;50.814;4.572;2023-06-26T00:48:42;22.40;99.90
19898;DHT22;10111;50.814;4.572;2023-06-26T00:51:08;22.40;99.90
19898;DHT22;10111;50.814;4.572;2023-06-26T00:53:35;22.40;99.90
19898;DHT22;10111;50.814;4.572;2023-06-26T00:56:01;22.40;99.90
19898;DHT22;10111;50.814;4.572;2023-06-26T00:58:27;22.30;99.90
19898;DHT22;10111;50.814;4.572;2023-06-26T01:00:53;22.30;99.90
19898;DHT22;10111;50.814;4.572;2023-06-26T01:03:23;22.20;99.90
19898;DHT22;10111;50.814;4.572;2023-06-26T01:05:52;22.20;99.90
19898;DHT22;10111;50.814;4.572;2023-06-26T01:08:18;22.10;99.90
19898;DHT22;10111;50.814;4.572;2023-06-26T01:10:45;22.00;99.90
19898;DHT22;10111;50.814;4.572;2023-06-26T01:13:12;21.90;99.90
19898;DHT22;10111;50.814;4.572;2023-06-26T01:15:39;21.90;99.90
19898;DHT22;10111;50.814;4.572;2023-06-26T01:18:06;21.90;99.90
19898;DHT22;10111;50.814;4.572;2023-06-26T01:20:35;21.90;99.90
19898;DHT22;10111;50.814;4.572;2023-06-26T01:28:41;21.80;99.90
19898;DHT22;10111;50.814;4.572;2023-06-26T01:31:07;21.80;99.90
19898;DHT22;10111;50.814;4.572;2023-06-26T01:33:34;21.70;99.90
19898;DHT22;10111;50.814;4.572;2023-06-26T01:36:00;21.60;99.90
19898;DHT22;10111;50.814;4.572;2023-06-26T01:38:26;21.60;99.90
19898;DHT22;10111;50.814;4.572;2023-06-26T01:40:52;21.60;99.90
19898;DHT22;10111;50.814;4.572;2023-06-26T01:43:27;21.60;99.90
19898;DHT22;10111;50.814;4.572;2023-06-26T01:46:09;21.60;99.90
19898;DHT22;10111;50.814;4.572;2023-06-26T01:48:44;21.70;99.90
19898;DHT22;10111;50.814;4.572;2023-06-26T01:51:12;21.60;99.90
19898;DHT22;10111;50.814;4.572;2023-06-26T01:53:42;21.60;99.90
19898;DHT22;10111;50.814;4.572;2023-06-26T01:56:13;21.50;99.90
19898;DHT22;10111;50.814;4.572;2023-06-26T01:58:43;21.50;99.90
19898;DHT22;10111;50.814;4.572;2023-06-26T02:01:11;21.50;99.90
19898;DHT22;10111;50.814;4.572;2023-06-26T02:03:37;21.40;99.90
19898;DHT22;10111;50.814;4.572;2023-06-26T02:06:03;21.40;99.90
19898;DHT22;10111;50.814;4.572;2023-06-26T02:08:28;21.30;99.90
19898;DHT22;10111;50.814;4.572;2023-06-26T02:10:54;21.30;99.90
19898;DHT22;10111;50.814;4.572;2023-06-26T02:13:20;21.30;99.90
19898;DHT22;10111;50.814;4.572;2023-06-26T02:15:45;21.30;99.90
19898;DHT22;10111;50.814;4.572;2023-06-26T02:18:11;21.30;99.90
19898;DHT22;10111;50.814;4.572;2023-06-26T02:20:36;21.30;99.90
19898;DHT22;10111;50.814;4.572;2023-06-26T02:23:02;21.30;99.90
19898;DHT22;10111;50.814;4.572;2023-06-26T02:25:28;21.20;99.90
19898;DHT22;10111;50.814;4.572;2023-06-26T02:27:53;21.20;99.90
19898;DHT22;10111;50.814;4.572;2023-06-26T02:30:20;21.10;99.90
19898;DHT22;10111;50.814;4.572;2023-06-26T02:32:46;21.10;99.90
19898;DHT22;10111;50.814;4.572;2023-06-26T02:35:11;21.00;99.90
19898;DHT22;10111;50.814;4.572;2023-06-26T02:37:37;21.00;99.90
19898;DHT22;10111;50.814;4.572;2023-06-26T02:40:03;20.90;99.90
19898;DHT22;10111;50.814;4.572;2023-06-26T02:42:30;20.90;99.90
19898;DHT22;10111;50.814;4.572;2023-06-26T02:44:56;20.90;99.90
19898;DHT22;10111;50.814;4.572;2023-06-26T02:47:22;20.90;99.90
19898;DHT22;10111;50.814;4.572;2023-06-26T02:49:48;21.00;99.90
19898;DHT22;10111;50.814;4.572;2023-06-26T02:52:13;21.00;99.90
19898;DHT22;10111;50.814;4.572;2023-06-26T02:54:39;21.00;99.90
19898;DHT22;10111;50.814;4.572;2023-06-26T02:57:04;21.10;99.90
19898;DHT22;10111;50.814;4.572;2023-06-26T02:59:30;21.10;99.90
19898;DHT22;10111;50.814;4.572;2023-06-26T03:01:56;21.10;99.90
19898;DHT22;10111;50.814;4.572;2023-06-26T03:04:21;21.10;99.90
19898;DHT22;10111;50.814;4.572;2023-06-26T03:06:47;21.00;99.90
19898;DHT22;10111;50.814;4.572;2023-06-26T03:09:13;21.00;99.90
19898;DHT22;10111;50.814;4.572;2023-06-26T03:11:38;20.90;99.90
19898;DHT22;10111;50.814;4.572;2023-06-26T03:14:04;20.90;99.90
19898;DHT22;10111;50.814;4.572;2023-06-26T03:16:30;20.90;99.90
19898;DHT22;10111;50.814;4.572;2023-06-26T03:18:55;20.80;99.90
19898;DHT22;10111;50.814;4.572;2023-06-26T03:21:21;20.70;99.90
19898;DHT22;10111;50.814;4.572;2023-06-26T03:23:47;20.70;99.90
19898;DHT22;10111;50.814;4.572;2023-06-26T03:26:12;20.70;99.90
19898;DHT22;10111;50.814;4.572;2023-06-26T03:28:40;20.60;99.90
19898;DHT22;10111;50.814;4.572;2023-06-26T03:31:06;20.60;99.90
19898;DHT22;10111;50.814;4.572;2023-06-26T03:33:31;20.50;99.90
19898;DHT22;10111;50.814;4.572;2023-06-26T03:35:57;20.50;99.90
19898;DHT22;10111;50.814;4.572;2023-06-26T03:38:24;20.50;99.90
19898;DHT22;10111;50.814;4.572;2023-06-26T03:40:51;20.40;99.90
19898;DHT22;10111;50.814;4.572;2023-06-26T03:43:17;20.30;99.90
19898;DHT22;10111;50.814;4.572;2023-06-26T03:45:43;20.30;99.90
19898;DHT22;10111;50.814;4.572;2023-06-26T03:48:08;20.20;99.90
19898;DHT22;10111;50.814;4.572;2023-06-26T03:50:34;20.10;99.90
19898;DHT22;10111;50.814;4.572;2023-06-26T03:53:00;20.10;99.90
19898;DHT22;10111;50.814;4.572;2023-06-26T03:55:25;20.10;99.90
19898;DHT22;10111;50.814;4.572;2023-06-26T03:57:51;20.10;99.90
19898;DHT22;10111;50.814;4.572;2023-06-26T04:00:17;20.00;99.90
19898;DHT22;10111;50.814;4.572;2023-06-26T04:02:43;20.00;99.90
19898;DHT22;10111;50.814;4.572;2023-06-26T04:05:08;19.90;99.90
19898;DHT22;10111;50.814;4.572;2023-06-26T04:07:34;19.90;99.90
19898;DHT22;10111;50.814;4.572;2023-06-26T04:10:01;19.90;99.90
19898;DHT22;10111;50.814;4.572;2023-06-26T04:12:27;19.90;99.90
19898;DHT22;10111;50.814;4.572;2023-06-26T04:14:52;19.90;99.90
19898;DHT22;10111;50.814;4.572;2023-06-26T04:17:18;19.90;99.90
19898;DHT22;10111;50.814;4.572;2023-06-26T04:19:44;20.00;99.90
19898;DHT22;10111;50.814;4.572;2023-06-26T04:22:09;20.00;99.90
19898;DHT22;10111;50.814;4.572;2023-06-26T04:24:35;20.00;99.90
19898;DHT22;10111;50.814;4.572;2023-06-26T04:27:01;20.00;99.90
19898;DHT22;10111;50.814;4.572;2023-06-26T04:29:26;19.90;99.90
19898;DHT22;10111;50.814;4.572;2023-06-26T04:31:53;19.90;99.90
19898;DHT22;10111;50.814;4.572;2023-06-26T04:34:29;20.00;99.90
19898;DHT22;10111;50.814;4.572;2023-06-26T04:36:58;20.00;99.90
19898;DHT22;10111;50.814;4.572;2023-06-26T04:39:23;20.10;99.90
19898;DHT22;10111;50.814;4.572;2023-06-26T04:41:49;20.20;99.90
19898;DHT22;10111;50.814;4.572;2023-06-26T04:44:14;20.30;99.90
19898;DHT22;10111;50.814;4.572;2023-06-26T04:46:40;20.30;99.90
19898;DHT22;10111;50.814;4.572;2023-06-26T04:49:09;20.30;99.90
19898;DHT22;10111;50.814;4.572;2023-06-26T04:51:35;20.30;99.90
19898;DHT22;10111;50.814;4.572;2023-06-26T04:54:09;20.30;99.90
19898;DHT22;10111;50.814;4.572;2023-06-26T04:56:35;20.30;99.90
19898;DHT22;10111;50.814;4.572;2023-06-26T04:59:01;20.30;99.90
19898;DHT22;10111;50.814;4.572;2023-06-26T05:01:26;20.30;99.90
19898;DHT22;10111;50.814;4.572;2023-06-26T05:03:55;20.30;99.90
19898;DHT22;10111;50.814;4.572;2023-06-26T05:06:21;20.30;99.90
19898;DHT22;10111;50.814;4.572;2023-06-26T05:08:47;20.40;99.90
19898;DHT22;10111;50.814;4.572;2023-06-26T05:11:13;20.50;99.90
19898;DHT22;10111;50.814;4.572;2023-06-26T05:13:38;20.50;99.90
19898;DHT22;10111;50.814;4.572;2023-06-26T05:16:04;20.50;99.90
19898;DHT22;10111;50.814;4.572;2023-06-26T05:18:30;20.60;99.90
19898;DHT22;10111;50.814;4.572;2023-06-26T05:20:55;20.70;99.90
19898;DHT22;10111;50.814;4.572;2023-06-26T05:23:23;20.70;99.90
19898;DHT22;10111;50.814;4.572;2023-06-26T05:25:51;20.80;99.90
19898;DHT22;10111;50.814;4.572;2023-06-26T05:28:16;20.90;99.90
19898;DHT22;10111;50.814;4.572;2023-06-26T05:30:42;21.10;99.90
19898;DHT22;10111;50.814;4.572;2023-06-26T05:33:11;21.30;99.90
19898;DHT22;10111;50.814;4.572;2023-06-26T05:35:37;21.40;99.90
19898;DHT22;10111;50.814;4.572;2023-06-26T05:38:03;21.40;99.90
19898;DHT22;10111;50.814;4.572;2023-06-26T05:40:29;21.50;99.90
19898;DHT22;10111;50.814;4.572;2023-06-26T05:42:55;21.50;99.90
19898;DHT22;10111;50.814;4.572;2023-06-26T05:45:21;21.70;99.90
19898;DHT22;10111;50.814;4.572;2023-06-26T05:47:46;21.60;99.90
19898;DHT22;10111;50.814;4.572;2023-06-26T05:50:13;21.70;99.90
19898;DHT22;10111;50.814;4.572;2023-06-26T05:52:39;21.90;99.90
19898;DHT22;10111;50.814;4.572;2023-06-26T05:55:05;21.90;99.90
19898;DHT22;10111;50.814;4.572;2023-06-26T05:57:31;22.00;99.90
19898;DHT22;10111;50.814;4.572;2023-06-26T05:59:57;22.20;99.90
19898;DHT22;10111;50.814;4.572;2023-06-26T06:02:23;22.40;99.90
19898;DHT22;10111;50.814;4.572;2023-06-26T06:04:49;22.40;99.90
19898;DHT22;10111;50.814;4.572;2023-06-26T06:07:15;22.50;99.90
19898;DHT22;10111;50.814;4.572;2023-06-26T06:09:40;22.50;99.90
19898;DHT22;10111;50.814;4.572;2023-06-26T06:12:06;22.60;99.90
19898;DHT22;10111;50.814;4.572;2023-06-26T06:14:33;22.80;99.90
19898;DHT22;10111;50.814;4.572;2023-06-26T06:16:59;22.80;99.90
19898;DHT22;10111;50.814;4.572;2023-06-26T06:19:25;22.80;99.90
19898;DHT22;10111;50.814;4.572;2023-06-26T06:21:50;22.90;99.90
19898;DHT22;10111;50.814;4.572;2023-06-26T06:24:16;23.10;99.90
19898;DHT22;10111;50.814;4.572;2023-06-26T06:26:42;23.10;99.90
19898;DHT22;10111;50.814;4.572;2023-06-26T06:29:07;23.20;99.90
19898;DHT22;10111;50.814;4.572;2023-06-26T06:31:33;23.40;99.90
19898;DHT22;10111;50.814;4.572;2023-06-26T06:33:59;23.40;99.90
19898;DHT22;10111;50.814;4.572;2023-06-26T06:36:24;23.60;99.90
19898;DHT22;10111;50.814;4.572;2023-06-26T06:38:50;23.60;99.90
19898;DHT22;10111;50.814;4.572;2023-06-26T06:41:16;23.80;99.90
19898;DHT22;10111;50.814;4.572;2023-06-26T06:43:42;23.80;99.90
19898;DHT22;10111;50.814;4.572;2023-06-26T06:46:08;23.90;99.90
19898;DHT22;10111;50.814;4.572;2023-06-26T06:48:34;23.90;99.90
19898;DHT22;10111;50.814;4.572;2023-06-26T06:51:00;24.00;99.90
19898;DHT22;10111;50.814;4.572;2023-06-26T06:53:26;24.20;99.90
19898;DHT22;10111;50.814;4.572;2023-06-26T06:55:51;24.20;99.90
19898;DHT22;10111;50.814;4.572;2023-06-26T06:58:17;24.30;99.90
19898;DHT22;10111;50.814;4.572;2023-06-26T07:00:44;24.40;99.90
19898;DHT22;10111;50.814;4.572;2023-06-26T07:03:10;24.70;99.90
19898;DHT22;10111;50.814;4.572;2023-06-26T07:05:36;24.80;99.90
19898;DHT22;10111;50.814;4.572;2023-06-26T07:08:02;25.10;99.90
19898;DHT22;10111;50.814;4.572;2023-06-26T07:10:28;25.10;99.90
19898;DHT22;10111;50.814;4.572;2023-06-26T07:12:54;24.90;99.90
19898;DHT22;10111;50.814;4.572;2023-06-26T07:15:20;24.90;99.90
19898;DHT22;10111;50.814;4.572;2023-06-26T07:17:46;25.00;99.90
19898;DHT22;10111;50.814;4.572;2023-06-26T07:20:11;24.90;99.90
19898;DHT22;10111;50.814;4.572;2023-06-26T07:22:41;24.90;99.90
19898;DHT22;10111;50.814;4.572;2023-06-26T07:25:07;24.90;99.90
19898;DHT22;10111;50.814;4.572;2023-06-26T07:27:37;24.80;99.90
19898;DHT22;10111;50.814;4.572;2023-06-26T07:30:03;25.10;99.90
19898;DHT22;10111;50.814;4.572;2023-06-26T07:32:29;25.10;99.90
19898;DHT22;10111;50.814;4.572;2023-06-26T07:34:54;25.30;99.90
19898;DHT22;10111;50.814;4.572;2023-06-26T07:37:20;25.60;99.90
19898;DHT22;10111;50.814;4.572;2023-06-26T07:39:47;25.80;99.90
19898;DHT22;10111;50.814;4.572;2023-06-26T07:42:13;25.80;99.90
19898;DHT22;10111;50.814;4.572;2023-06-26T07:44:38;25.80;99.90
19898;DHT22;10111;50.814;4.572;2023-06-26T07:47:04;25.80;99.90
19898;DHT22;10111;50.814;4.572;2023-06-26T07:49:30;25.80;99.90
19898;DHT22;10111;50.814;4.572;2023-06-26T07:51:55;26.10;99.90
19898;DHT22;10111;50.814;4.572;2023-06-26T07:54:21;26.20;99.90
19898;DHT22;10111;50.814;4.572;2023-06-26T07:56:53;26.30;99.90
19898;DHT22;10111;50.814;4.572;2023-06-26T07:59:23;26.30;99.90
19898;DHT22;10111;50.814;4.572;2023-06-26T08:01:50;26.50;99.90
19898;DHT22;10111;50.814;4.572;2023-06-26T08:04:21;26.50;99.90
19898;DHT22;10111;50.814;4.572;2023-06-26T08:06:54;26.40;99.90
19898;DHT22;10111;50.814;4.572;2023-06-26T08:09:22;26.30;99.90
19898;DHT22;10111;50.814;4.572;2023-06-26T08:11:48;26.50;99.90
19898;DHT22;10111;50.814;4.572;2023-06-26T08:14:15;26.70;99.90
19898;DHT22;10111;50.814;4.572;2023-06-26T08:16:42;26.70;99.90
19898;DHT22;10111;50.814;4.572;2023-06-26T08:19:09;26.50;99.90
19898;DHT22;10111;50.814;4.572;2023-06-26T08:21:35;26.60;99.90
19898;DHT22;10111;50.814;4.572;2023-06-26T08:24:01;26.70;99.90
19898;DHT22;10111;50.814;4.572;2023-06-26T08:26:27;26.80;99.90
19898;DHT22;10111;50.814;4.572;2023-06-26T08:28:53;26.90;99.90
19898;DHT22;10111;50.814;4.572;2023-06-26T08:31:19;27.00;99.90
19898;DHT22;10111;50.814;4.572;2023-06-26T08:33:46;27.10;99.90
19898;DHT22;10111;50.814;4.572;2023-06-26T08:36:12;27.20;99.90
19898;DHT22;10111;50.814;4.572;2023-06-26T08:38:37;27.30;99.90
19898;DHT22;10111;50.814;4.572;2023-06-26T08:41:06;27.50;99.90
19898;DHT22;10111;50.814;4.572;2023-06-26T08:43:32;27.50;99.90
19898;DHT22;10111;50.814;4.572;2023-06-26T08:45:59;27.20;99.90
19898;DHT22;10111;50.814;4.572;2023-06-26T08:48:25;26.80;99.90
19898;DHT22;10111;50.814;4.572;2023-06-26T08:50:53;26.70;99.90
19898;DHT22;10111;50.814;4.572;2023-06-26T08:56:03;27.00;99.90
19898;DHT22;10111;50.814;4.572;2023-06-26T08:58:29;27.00;99.90
19898;DHT22;10111;50.814;4.572;2023-06-26T09:00:56;27.10;99.90
19898;DHT22;10111;50.814;4.572;2023-06-26T09:03:23;26.90;99.90
19898;DHT22;10111;50.814;4.572;2023-06-26T09:05:50;27.10;99.90
19898;DHT22;10111;50.814;4.572;2023-06-26T09:08:16;27.10;99.90
19898;DHT22;10111;50.814;4.572;2023-06-26T09:10:41;27.20;99.90
19898;DHT22;10111;50.814;4.572;2023-06-26T09:13:07;27.40;99.90
19898;DHT22;10111;50.814;4.572;2023-06-26T09:15:42;27.40;99.90
19898;DHT22;10111;50.814;4.572;2023-06-26T09:18:08;27.70;99.90
19898;DHT22;10111;50.814;4.572;2023-06-26T09:20:33;27.60;99.90
19898;DHT22;10111;50.814;4.572;2023-06-26T09:23:00;27.50;99.90
19898;DHT22;10111;50.814;4.572;2023-06-26T09:25:26;27.30;99.90
19898;DHT22;10111;50.814;4.572;2023-06-26T09:27:53;27.30;99.90
19898;DHT22;10111;50.814;4.572;2023-06-26T09:30:19;27.40;99.90
19898;DHT22;10111;50.814;4.572;2023-06-26T09:32:45;27.50;99.90
19898;DHT22;10111;50.814;4.572;2023-06-26T09:35:11;27.60;99.90
19898;DHT22;10111;50.814;4.572;2023-06-26T09:37:37;27.60;99.90
19898;DHT22;10111;50.814;4.572;2023-06-26T09:40:03;27.70;99.90
19898;DHT22;10111;50.814;4.572;2023-06-26T09:42:33;27.80;99.90
19898;DHT22;10111;50.814;4.572;2023-06-26T09:44:59;27.50;99.90
19898;DHT22;10111;50.814;4.572;2023-06-26T09:47:25;27.50;99.90
19898;DHT22;10111;50.814;4.572;2023-06-26T09:49:51;27.60;99.90
19898;DHT22;10111;50.814;4.572;2023-06-26T09:52:18;27.60;99.90
19898;DHT22;10111;50.814;4.572;2023-06-26T09:54:45;27.50;99.90
19898;DHT22;10111;50.814;4.572;2023-06-26T09:57:16;27.30;99.90
19898;DHT22;10111;50.814;4.572;2023-06-26T09:59:43;27.40;99.90
19898;DHT22;10111;50.814;4.572;2023-06-26T10:02:11;27.40;99.90
19898;DHT22;10111;50.814;4.572;2023-06-26T10:04:37;27.70;99.90
19898;DHT22;10111;50.814;4.572;2023-06-26T10:07:06;27.90;99.90
19898;DHT22;10111;50.814;4.572;2023-06-26T10:09:35;28.00;99.90
19898;DHT22;10111;50.814;4.572;2023-06-26T10:14:35;27.70;99.90
19898;DHT22;10111;50.814;4.572;2023-06-26T10:17:09;27.80;99.90
19898;DHT22;10111;50.814;4.572;2023-06-26T10:19:35;27.40;99.90
19898;DHT22;10111;50.814;4.572;2023-06-26T10:22:03;27.20;99.90
19898;DHT22;10111;50.814;4.572;2023-06-26T10:24:33;27.30;99.90
19898;DHT22;10111;50.814;4.572;2023-06-26T10:27:19;27.10;99.90
19898;DHT22;10111;50.814;4.572;2023-06-26T10:29:53;27.20;99.90
19898;DHT22;10111;50.814;4.572;2023-06-26T10:32:21;27.30;99.90
19898;DHT22;10111;50.814;4.572;2023-06-26T10:34:49;27.60;99.90
19898;DHT22;10111;50.814;4.572;2023-06-26T10:37:15;27.60;99.90
19898;DHT22;10111;50.814;4.572;2023-06-26T10:39:51;27.60;99.90
19898;DHT22;10111;50.814;4.572;2023-06-26T10:42:18;27.90;99.90
19898;DHT22;10111;50.814;4.572;2023-06-26T10:44:46;27.60;99.90
19898;DHT22;10111;50.814;4.572;2023-06-26T10:49:54;27.50;99.90
19898;DHT22;10111;50.814;4.572;2023-06-26T10:52:19;27.40;99.90
19898;DHT22;10111;50.814;4.572;2023-06-26T10:54:45;27.40;99.90
19898;DHT22;10111;50.814;4.572;2023-06-26T10:57:11;27.20;99.90
19898;DHT22;10111;50.814;4.572;2023-06-26T10:59:39;26.90;99.90
19898;DHT22;10111;50.814;4.572;2023-06-26T11:02:06;27.00;99.90
19898;DHT22;10111;50.814;4.572;2023-06-26T11:04:49;27.00;99.90
19898;DHT22;10111;50.814;4.572;2023-06-26T11:07:22;27.00;99.00
19898;DHT22;10111;50.814;4.572;2023-06-26T11:10:02;26.90;99.20
19898;DHT22;10111;50.814;4.572;2023-06-26T11:12:39;26.70;99.50
19898;DHT22;10111;50.814;4.572;2023-06-26T11:15:17;26.60;99.90
19898;DHT22;10111;50.814;4.572;2023-06-26T11:17:44;26.60;99.90
19898;DHT22;10111;50.814;4.572;2023-06-26T11:20:12;26.80;99.90
19898;DHT22;10111;50.814;4.572;2023-06-26T11:22:40;26.90;99.90
19898;DHT22;10111;50.814;4.572;2023-06-26T11:25:07;27.10;99.90
19898;DHT22;10111;50.814;4.572;2023-06-26T11:27:43;27.10;99.90
19898;DHT22;10111;50.814;4.572;2023-06-26T11:30:11;27.20;99.90
19898;DHT22;10111;50.814;4.572;2023-06-26T11:32:40;27.20;99.90
19898;DHT22;10111;50.814;4.572;2023-06-26T11:35:06;27.30;99.90
19898;DHT22;10111;50.814;4.572;2023-06-26T11:37:32;27.30;99.80
19898;DHT22;10111;50.814;4.572;2023-06-26T11:39:59;27.60;99.90
19898;DHT22;10111;50.814;4.572;2023-06-26T11:42:25;27.70;98.80
19898;DHT22;10111;50.814;4.572;2023-06-26T11:44:51;27.60;99.70
19898;DHT22;10111;50.814;4.572;2023-06-26T11:47:21;27.50;99.90
19898;DHT22;10111;50.814;4.572;2023-06-26T11:49:48;27.50;99.80
19898;DHT22;10111;50.814;4.572;2023-06-26T11:52:15;27.50;99.90
19898;DHT22;10111;50.814;4.572;2023-06-26T11:54:42;27.30;99.90
19898;DHT22;10111;50.814;4.572;2023-06-26T11:57:12;27.10;99.90
19898;DHT22;10111;50.814;4.572;2023-06-26T11:59:40;27.20;99.90
19898;DHT22;10111;50.814;4.572;2023-06-26T12:02:10;27.10;99.90
19898;DHT22;10111;50.814;4.572;2023-06-26T12:04:41;27.10;99.90
19898;DHT22;10111;50.814;4.572;2023-06-26T12:07:08;27.00;99.90
19898;DHT22;10111;50.814;4.572;2023-06-26T12:09:43;26.90;99.90
19898;DHT22;10111;50.814;4.572;2023-06-26T12:12:14;26.70;99.90
19898;DHT22;10111;50.814;4.572;2023-06-26T12:14:40;26.50;99.90
19898;DHT22;10111;50.814;4.572;2023-06-26T12:17:09;26.60;99.90
19898;DHT22;10111;50.814;4.572;2023-06-26T12:19:38;26.70;99.90
19898;DHT22;10111;50.814;4.572;2023-06-26T12:22:07;26.50;99.80
19898;DHT22;10111;50.814;4.572;2023-06-26T12:24:36;26.20;98.50
19898;DHT22;10111;50.814;4.572;2023-06-26T12:27:07;26.30;99.90
19898;DHT22;10111;50.814;4.572;2023-06-26T12:29:33;26.30;99.90
19898;DHT22;10111;50.814;4.572;2023-06-26T12:32:00;26.20;99.90
19898;DHT22;10111;50.814;4.572;2023-06-26T12:34:32;26.30;99.90
19898;DHT22;10111;50.814;4.572;2023-06-26T12:37:03;26.30;99.90
19898;DHT22;10111;50.814;4.572;2023-06-26T12:39:30;26.50;99.90
19898;DHT22;10111;50.814;4.572;2023-06-26T12:42:14;26.70;99.60
19898;DHT22;10111;50.814;4.572;2023-06-26T12:44:40;26.70;98.00
19898;DHT22;10111;50.814;4.572;2023-06-26T12:47:05;26.50;99.90
19898;DHT22;10111;50.814;4.572;2023-06-26T12:49:40;26.40;99.00
19898;DHT22;10111;50.814;4.572;2023-06-26T12:52:09;26.50;98.10
19898;DHT22;10111;50.814;4.572;2023-06-26T12:54:35;26.40;98.10
19898;DHT22;10111;50.814;4.572;2023-06-26T12:57:01;26.50;98.70
19898;DHT22;10111;50.814;4.572;2023-06-26T12:59:29;26.50;98.30
19898;DHT22;10111;50.814;4.572;2023-06-26T13:01:55;26.40;96.80
19898;DHT22;10111;50.814;4.572;2023-06-26T13:04:21;26.40;98.30
19898;DHT22;10111;50.814;4.572;2023-06-26T13:06:47;26.60;99.10
19898;DHT22;10111;50.814;4.572;2023-06-26T13:09:13;26.60;98.40
19898;DHT22;10111;50.814;4.572;2023-06-26T13:11:38;26.80;99.70
19898;DHT22;10111;50.814;4.572;2023-06-26T13:14:04;26.90;97.30
19898;DHT22;10111;50.814;4.572;2023-06-26T13:16:30;27.10;98.00
19898;DHT22;10111;50.814;4.572;2023-06-26T13:18:58;27.20;97.60
19898;DHT22;10111;50.814;4.572;2023-06-26T13:21:24;27.50;98.00
19898;DHT22;10111;50.814;4.572;2023-06-26T13:23:49;27.40;97.50
19898;DHT22;10111;50.814;4.572;2023-06-26T13:26:15;27.50;96.60
19898;DHT22;10111;50.814;4.572;2023-06-26T13:28:41;27.40;99.00
19898;DHT22;10111;50.814;4.572;2023-06-26T13:31:07;27.40;97.20
19898;DHT22;10111;50.814;4.572;2023-06-26T13:33:32;27.40;95.90
19898;DHT22;10111;50.814;4.572;2023-06-26T13:35:58;27.30;95.50
19898;DHT22;10111;50.814;4.572;2023-06-26T13:38:25;27.00;95.10
19898;DHT22;10111;50.814;4.572;2023-06-26T13:40:52;27.00;95.60
19898;DHT22;10111;50.814;4.572;2023-06-26T13:43:18;26.90;97.70
19898;DHT22;10111;50.814;4.572;2023-06-26T13:45:44;26.90;98.30
19898;DHT22;10111;50.814;4.572;2023-06-26T13:48:10;26.80;96.40
19898;DHT22;10111;50.814;4.572;2023-06-26T13:50:35;26.90;98.90
19898;DHT22;10111;50.814;4.572;2023-06-26T13:53:01;26.90;97.20
19898;DHT22;10111;50.814;4.572;2023-06-26T13:55:27;27.10;98.10
19898;DHT22;10111;50.814;4.572;2023-06-26T13:57:53;27.10;97.00
19898;DHT22;10111;50.814;4.572;2023-06-26T14:00:19;27.20;97.80
19898;DHT22;10111;50.814;4.572;2023-06-26T14:02:47;27.20;99.20
19898;DHT22;10111;50.814;4.572;2023-06-26T14:05:12;27.50;98.70
19898;DHT22;10111;50.814;4.572;2023-06-26T14:07:38;27.50;96.60
19898;DHT22;10111;50.814;4.572;2023-06-26T14:10:05;27.50;98.00
19898;DHT22;10111;50.814;4.572;2023-06-26T14:12:34;27.50;96.10
19898;DHT22;10111;50.814;4.572;2023-06-26T14:15:00;27.60;97.30
19898;DHT22;10111;50.814;4.572;2023-06-26T14:17:26;27.70;97.10
19898;DHT22;10111;50.814;4.572;2023-06-26T14:19:52;27.70;97.50
19898;DHT22;10111;50.814;4.572;2023-06-26T14:22:18;27.70;97.70
19898;DHT22;10111;50.814;4.572;2023-06-26T14:24:44;27.80;98.00
19898;DHT22;10111;50.814;4.572;2023-06-26T14:27:10;27.80;97.10
19898;DHT22;10111;50.814;4.572;2023-06-26T14:29:36;27.70;96.70
19898;DHT22;10111;50.814;4.572;2023-06-26T14:32:03;27.40;95.60
19898;DHT22;10111;50.814;4.572;2023-06-26T14:34:28;27.30;96.80
19898;DHT22;10111;50.814;4.572;2023-06-26T14:36:55;27.20;96.50
19898;DHT22;10111;50.814;4.572;2023-06-26T14:39:20;27.10;97.10
19898;DHT22;10111;50.814;4.572;2023-06-26T14:41:46;27.20;97.10
19898;DHT22;10111;50.814;4.572;2023-06-26T14:44:15;27.40;96.20
19898;DHT22;10111;50.814;4.572;2023-06-26T14:46:41;27.10;96.50
19898;DHT22;10111;50.814;4.572;2023-06-26T14:49:07;27.20;96.90
19898;DHT22;10111;50.814;4.572;2023-06-26T14:51:33;27.20;96.70
19898;DHT22;10111;50.814;4.572;2023-06-26T14:53:59;27.30;95.50
19898;DHT22;10111;50.814;4.572;2023-06-26T14:56:25;27.20;96.30
19898;DHT22;10111;50.814;4.572;2023-06-26T14:58:51;27.20;94.50
19898;DHT22;10111;50.814;4.572;2023-06-26T15:01:21;27.20;94.70
19898;DHT22;10111;50.814;4.572;2023-06-26T15:03:47;27.30;94.80
19898;DHT22;10111;50.814;4.572;2023-06-26T15:06:13;27.30;95.60
19898;DHT22;10111;50.814;4.572;2023-06-26T15:08:38;27.30;93.30
19898;DHT22;10111;50.814;4.572;2023-06-26T15:11:04;26.90;93.30
19898;DHT22;10111;50.814;4.572;2023-06-26T15:13:30;26.80;94.30
19898;DHT22;10111;50.814;4.572;2023-06-26T15:15:55;26.80;95.70
19898;DHT22;10111;50.814;4.572;2023-06-26T15:18:21;26.80;96.40
19898;DHT22;10111;50.814;4.572;2023-06-26T15:20:47;26.70;95.10
19898;DHT22;10111;50.814;4.572;2023-06-26T15:23:12;26.70;95.70
19898;DHT22;10111;50.814;4.572;2023-06-26T15:25:38;26.80;95.60
19898;DHT22;10111;50.814;4.572;2023-06-26T15:28:05;26.70;96.00
19898;DHT22;10111;50.814;4.572;2023-06-26T15:30:31;26.50;95.20
19898;DHT22;10111;50.814;4.572;2023-06-26T15:32:57;26.40;95.20
19898;DHT22;10111;50.814;4.572;2023-06-26T15:35:22;26.40;96.20
19898;DHT22;10111;50.814;4.572;2023-06-26T15:37:48;26.50;96.20
19898;DHT22;10111;50.814;4.572;2023-06-26T15:40:15;26.40;96.70
19898;DHT22;10111;50.814;4.572;2023-06-26T15:42:48;26.30;97.20